Terminal Aerodrome Forecast
Issued by NWS

Current Version | Previous Version | Text Only | Print | Product List | Glossary On
Versions: 1 2 3 4 5 6 7 8 9 10 11 12 13 14
285
FTUS41 KLWX 272333
TAFMTN
TAF
KMTN 272333Z 2800/2824 16007KT P6SM BKN040
     FM281200 VRB03KT P6SM -SHRA OVC100
     FM281800 14005KT 5SM -SHRA OVC050
     FM282000 12005KT 3SM SHRA OVC050
      AMD NOT SKED 2802/2812=

USA.gov is the U.S. government's official web portal to all federal, state and local government web resources and services.